createdAt,value
2018-06-28T00:00:50.065Z,80.5
2018-06-28T00:02:50.100Z,80.2
2018-06-28T00:04:50.358Z,80.6
2018-06-28T00:06:50.613Z,80.6
2018-06-28T00:08:51.021Z,79.5
2018-06-28T00:10:50.112Z,79.1
2018-06-28T00:12:50.212Z,79.3
2018-06-28T00:14:50.308Z,79.5
2018-06-28T00:16:50.449Z,79.7
2018-06-28T00:18:50.520Z,80.0
2018-06-28T00:20:50.629Z,80.0
2018-06-28T00:22:50.794Z,80.0
2018-06-28T00:24:50.895Z,78.9
2018-06-28T00:26:50.166Z,78.9
2018-06-28T00:28:50.281Z,79.1
2018-06-28T00:30:50.387Z,79.4
2018-06-28T00:32:50.426Z,79.7
2018-06-28T00:34:50.792Z,79.7
2018-06-28T00:36:50.927Z,79.1
2018-06-28T00:38:49.997Z,78.7
2018-06-28T00:40:50.084Z,78.9
2018-06-28T00:42:50.148Z,79.0
2018-06-28T00:44:50.246Z,79.0
2018-06-28T00:46:50.410Z,79.0
2018-06-28T00:48:50.540Z,78.6
2018-06-28T00:50:50.613Z,78.8
2018-06-28T00:52:50.733Z,78.9
2018-06-28T00:54:50.768Z,78.7
2018-06-28T00:56:50.036Z,79.1
2018-06-28T00:58:50.151Z,79.2
2018-06-28T01:00:50.230Z,78.9
2018-06-28T01:02:50.336Z,79.0
2018-06-28T01:04:50.601Z,78.8
2018-06-28T01:06:50.889Z,78.7
2018-06-28T01:08:50.927Z,79.1
2018-06-28T01:10:50.045Z,79.0
2018-06-28T01:12:50.181Z,78.8
2018-06-28T01:14:50.227Z,78.8
2018-06-28T01:16:50.415Z,78.7
2018-06-28T01:18:50.500Z,78.8
2018-06-28T01:20:50.631Z,79.6
2018-06-28T01:22:50.677Z,79.8
2018-06-28T01:24:50.782Z,80.0
2018-06-28T01:26:50.955Z,79.8
2018-06-28T01:28:50.077Z,80.3
2018-06-28T01:30:50.130Z,80.5
2018-06-28T01:32:50.146Z,80.7
2018-06-28T01:34:50.422Z,80.4
2018-06-28T01:36:50.651Z,80.5
2018-06-28T01:38:50.769Z,80.9
2018-06-28T01:40:50.855Z,80.8
2018-06-28T01:42:50.016Z,81.3
2018-06-28T01:44:50.155Z,81.6
2018-06-28T01:46:51.000Z,81.7
2018-06-28T01:48:50.134Z,81.1
2018-06-28T01:50:50.228Z,81.0
2018-06-28T01:52:50.365Z,80.9
2018-06-28T01:54:50.456Z,80.8
2018-06-28T01:56:50.658Z,81.3
2018-06-28T01:58:50.726Z,81.3
2018-06-28T02:00:50.842Z,81.2
2018-06-28T02:02:50.926Z,81.1
2018-06-28T02:04:50.256Z,81.2
2018-06-28T02:06:50.462Z,81.4
2018-06-28T02:08:50.723Z,81.1
2018-06-28T02:10:50.877Z,81.5
2018-06-28T02:12:50.988Z,81.9
2018-06-28T02:14:50.025Z,82.0
2018-06-28T02:16:50.298Z,81.9
2018-06-28T02:18:50.378Z,81.8
2018-06-28T02:20:50.567Z,81.9
2018-06-28T02:22:50.705Z,82.5
2018-06-28T02:24:50.791Z,82.4
2018-06-28T02:26:49.980Z,82.2
2018-06-28T02:28:50.133Z,81.3
2018-06-28T02:30:50.251Z,80.8
2018-06-28T02:32:50.353Z,81.1
2018-06-28T02:34:50.708Z,80.9
2018-06-28T02:36:50.931Z,81.0
2018-06-28T02:38:50.035Z,81.0
2018-06-28T02:40:50.129Z,81.4
2018-06-28T02:42:50.200Z,81.3
2018-06-28T02:44:50.436Z,81.4
2018-06-28T02:46:50.721Z,80.7
2018-06-28T02:48:50.809Z,80.5
2018-06-28T02:50:50.883Z,80.5
2018-06-28T02:52:50.016Z,80.4
2018-06-28T02:54:50.216Z,80.7
2018-06-28T02:56:50.445Z,80.9
2018-06-28T02:58:50.545Z,81.0
2018-06-28T03:00:50.590Z,81.2
2018-06-28T03:02:50.766Z,81.6
2018-06-28T03:04:50.008Z,82.0
2018-06-28T03:06:50.266Z,82.3
2018-06-28T03:08:50.436Z,81.9
2018-06-28T03:10:50.513Z,81.8
2018-06-28T03:12:50.658Z,81.8
2018-06-28T03:14:50.809Z,81.8
2018-06-28T03:16:50.140Z,82.3
2018-06-28T03:18:50.237Z,82.5
2018-06-28T03:20:50.371Z,82.4
2018-06-28T03:22:50.524Z,82.4
2018-06-28T03:24:50.700Z,82.6
2018-06-28T03:26:49.970Z,82.5
2018-06-28T03:28:50.011Z,82.7
2018-06-28T03:30:50.571Z,82.7
2018-06-28T03:32:50.733Z,83.1
2018-06-28T03:34:49.970Z,83.6
2018-06-28T03:36:50.191Z,83.6
2018-06-28T03:38:50.313Z,83.6
2018-06-28T03:40:50.359Z,83.8
2018-06-28T03:42:50.476Z,83.8
2018-06-28T03:44:50.572Z,83.9
2018-06-28T03:46:50.901Z,84.1
2018-06-28T03:48:50.177Z,83.7
2018-06-28T03:50:50.221Z,84.1
2018-06-28T03:52:50.244Z,83.4
2018-06-28T03:54:50.316Z,82.4
2018-06-28T03:56:50.497Z,81.4
2018-06-28T03:58:50.709Z,81.0
2018-06-28T04:00:50.959Z,81.0
2018-06-28T04:02:50.042Z,80.2
2018-06-28T04:04:50.363Z,79.8
2018-06-28T04:06:50.617Z,79.3
2018-06-28T04:08:50.742Z,79.1
2018-06-28T04:10:50.787Z,78.5
2018-06-28T04:12:50.853Z,78.5
2018-06-28T04:14:50.031Z,78.3
2018-06-28T04:16:50.428Z,78.2
2018-06-28T04:18:50.558Z,78.1
2018-06-28T04:20:50.643Z,77.9
2018-06-28T04:22:50.708Z,77.7
2018-06-28T04:24:50.776Z,77.4
2018-06-28T04:26:50.002Z,77.2
2018-06-28T04:28:50.298Z,77.2
2018-06-28T04:30:50.365Z,76.9
2018-06-28T04:32:50.505Z,76.9
2018-06-28T04:34:50.775Z,77.0
2018-06-28T04:36:50.975Z,76.9
2018-06-28T04:38:50.071Z,76.4
2018-06-28T04:40:50.181Z,76.2
2018-06-28T04:42:50.430Z,75.4
2018-06-28T04:44:50.542Z,75.1
2018-06-28T04:46:50.690Z,75.0
2018-06-28T04:48:50.719Z,74.2
2018-06-28T04:50:50.829Z,74.0
2018-06-28T04:52:50.830Z,73.2
2018-06-28T04:54:50.952Z,72.9
2018-06-28T04:56:50.243Z,72.2
2018-06-28T04:58:50.312Z,71.9
2018-06-28T05:00:50.451Z,71.5
2018-06-28T05:02:50.517Z,70.8
2018-06-28T05:04:50.733Z,70.8
2018-06-28T05:06:50.903Z,70.6
2018-06-28T05:08:49.997Z,70.5
2018-06-28T05:10:50.077Z,70.2
2018-06-28T05:12:50.112Z,70.5
2018-06-28T05:14:50.192Z,70.3
2018-06-28T05:16:50.285Z,70.7
2018-06-28T05:18:50.387Z,70.1
2018-06-28T05:20:50.477Z,70.2
2018-06-28T05:22:50.560Z,69.6
2018-06-28T05:24:50.647Z,69.7
2018-06-28T05:26:50.779Z,69.2
2018-06-28T05:28:50.825Z,69.6
2018-06-28T05:30:49.984Z,69.4
2018-06-28T05:32:50.027Z,69.2
2018-06-28T05:34:50.570Z,69.0
2018-06-28T05:36:50.349Z,68.8
2018-06-28T05:38:50.403Z,66.9
2018-06-28T05:40:50.530Z,67.0
2018-06-28T05:42:50.668Z,66.3
2018-06-28T05:44:50.732Z,66.2
2018-06-28T05:46:50.973Z,65.2
2018-06-28T05:48:50.072Z,64.5
2018-06-28T05:50:50.143Z,64.5
2018-06-28T05:52:50.249Z,64.7
2018-06-28T05:54:50.334Z,63.6
2018-06-28T05:56:50.536Z,63.3
2018-06-28T05:58:50.625Z,62.6
2018-06-28T06:00:50.743Z,61.7
2018-06-28T06:02:50.803Z,62.2
2018-06-28T06:04:50.127Z,63.0
2018-06-28T06:06:50.389Z,62.0
2018-06-28T06:08:50.574Z,62.0
2018-06-28T06:10:50.668Z,61.7
2018-06-28T06:12:50.765Z,61.3
2018-06-28T06:14:50.843Z,62.6
2018-06-28T06:16:50.128Z,61.2
2018-06-28T06:18:50.329Z,62.0
2018-06-28T06:20:50.434Z,61.7
2018-06-28T06:22:50.490Z,61.0
2018-06-28T06:24:50.715Z,62.1
2018-06-28T06:26:50.042Z,61.4
2018-06-28T06:28:50.289Z,61.3
2018-06-28T06:30:50.394Z,60.9
2018-06-28T06:32:50.443Z,60.3
2018-06-28T06:34:50.676Z,60.4
2018-06-28T06:36:50.895Z,60.8
2018-06-28T06:38:50.956Z,60.2
2018-06-28T06:40:50.062Z,60.4
2018-06-28T06:42:50.115Z,61.1
2018-06-28T06:44:50.199Z,61.2
2018-06-28T06:46:50.356Z,61.3
2018-06-28T06:48:51.336Z,61.4
2018-06-28T06:50:50.487Z,60.4
2018-06-28T06:52:50.570Z,60.9
2018-06-28T06:54:50.662Z,61.0
2018-06-28T06:56:50.897Z,60.6
2018-06-28T06:58:50.944Z,60.6
2018-06-28T07:00:50.165Z,59.9
2018-06-28T07:02:50.240Z,59
2018-06-28T07:04:50.512Z,59
2018-06-28T07:06:50.777Z,59
2018-06-28T07:08:51.031Z,59
2018-06-28T07:10:50.209Z,59
2018-06-28T07:12:50.328Z,59
2018-06-28T07:14:50.374Z,58
2018-06-28T07:16:50.704Z,58
2018-06-28T07:18:50.825Z,58
2018-06-28T07:20:50.931Z,58
2018-06-28T07:22:51.008Z,58
2018-06-28T07:24:50.244Z,58
2018-06-28T07:26:50.455Z,58
2018-06-28T07:28:50.552Z,58
2018-06-28T07:30:50.358Z,58
2018-06-28T07:32:50.482Z,58
2018-06-28T07:34:50.852Z,58
2018-06-28T07:36:50.060Z,57
2018-06-28T07:38:50.154Z,57
2018-06-28T07:40:50.399Z,57
2018-06-28T07:42:50.453Z,57
2018-06-28T07:44:50.525Z,57
2018-06-28T07:46:51.329Z,56
2018-06-28T07:48:50.371Z,56
2018-06-28T07:50:50.438Z,56
2018-06-28T07:52:50.502Z,56
2018-06-28T07:54:50.544Z,56
2018-06-28T07:56:50.721Z,56
2018-06-28T07:58:50.918Z,54.5
2018-06-28T08:00:50.023Z,54.5
2018-06-28T08:02:50.121Z,56
2018-06-28T08:04:50.321Z,56
2018-06-28T08:06:50.478Z,56
2018-06-28T08:08:50.594Z,55
2018-06-28T08:10:50.651Z,55
2018-06-28T08:12:50.702Z,55
2018-06-28T08:14:50.757Z,54
2018-06-28T08:16:50.934Z,54
2018-06-28T08:18:50.290Z,55
2018-06-28T08:20:50.376Z,54
2018-06-28T08:22:50.599Z,54
2018-06-28T08:24:50.718Z,53
2018-06-28T08:26:50.316Z,53
2018-06-28T08:28:50.365Z,54
2018-06-28T08:30:50.496Z,52.7
2018-06-28T08:32:50.564Z,52.3
2018-06-28T08:34:50.844Z,52.4
2018-06-28T08:36:50.167Z,53.2
2018-06-28T08:38:50.290Z,52.4
2018-06-28T08:40:50.306Z,51.8
2018-06-28T08:42:50.359Z,51.3
2018-06-28T08:44:50.430Z,53
2018-06-28T08:46:50.599Z,53
2018-06-28T08:48:50.714Z,53
2018-06-28T08:50:50.751Z,52
2018-06-28T08:52:50.930Z,51.8
2018-06-28T08:54:50.954Z,50.1
2018-06-28T08:56:50.246Z,50.3
2018-06-28T08:58:50.454Z,51
2018-06-28T09:00:50.545Z,51
2018-06-28T09:02:50.600Z,51
2018-06-28T09:04:50.847Z,51
2018-06-28T09:06:50.175Z,50
2018-06-28T09:08:50.279Z,51
2018-06-28T09:10:50.282Z,48.5
2018-06-28T09:12:50.337Z,48.6
2018-06-28T09:14:50.407Z,47.9
2018-06-28T09:16:50.694Z,48.4
2018-06-28T09:18:50.869Z,48.8
2018-06-28T09:20:49.987Z,49.0
2018-06-28T09:22:50.401Z,49.2
2018-06-28T09:24:50.503Z,48.5
2018-06-28T09:26:50.731Z,48.7
2018-06-28T09:28:50.809Z,49.0
2018-06-28T09:30:50.874Z,48.4
2018-06-28T09:32:50.935Z,48.5
2018-06-28T09:34:50.228Z,48.8
2018-06-28T09:36:50.366Z,49.5
2018-06-28T09:38:50.409Z,49.8
2018-06-28T09:40:50.593Z,49.9
2018-06-28T09:42:50.633Z,49.5
2018-06-28T09:44:50.815Z,48.9
2018-06-28T09:46:50.044Z,50.3
2018-06-28T09:48:50.259Z,50.5
2018-06-28T09:50:50.354Z,49.6
2018-06-28T09:52:50.379Z,50.1
2018-06-28T09:54:51.124Z,50.1
2018-06-28T09:56:50.335Z,50.7
2018-06-28T09:58:50.439Z,50.1
2018-06-28T10:00:50.485Z,50.5
2018-06-28T10:02:50.419Z,50.7
2018-06-28T10:04:50.769Z,51.1
2018-06-28T10:06:50.411Z,51.0
2018-06-28T10:08:50.505Z,51.0
2018-06-28T10:10:50.571Z,51.6
2018-06-28T10:12:50.694Z,51.5
2018-06-28T10:14:51.756Z,51.5
2018-06-28T10:16:50.090Z,50.9
2018-06-28T10:18:50.195Z,51.2
2018-06-28T10:20:50.236Z,51.6
2018-06-28T10:22:50.364Z,50.4
2018-06-28T10:24:50.433Z,50.3
2018-06-28T10:26:50.627Z,50.4
2018-06-28T10:28:50.653Z,49.7
2018-06-28T10:30:50.766Z,50.5
2018-06-28T10:32:51.340Z,50.7
2018-06-28T10:34:50.733Z,50.8
2018-06-28T10:36:49.990Z,51.1
2018-06-28T10:38:50.053Z,50.4
2018-06-28T10:40:50.638Z,49.9
2018-06-28T10:42:50.811Z,49.7
2018-06-28T10:44:50.936Z,49.7
2018-06-28T10:46:50.237Z,49.2
2018-06-28T10:48:50.297Z,49.3
2018-06-28T10:50:50.417Z,49.5
2018-06-28T10:52:50.445Z,48.9
2018-06-28T10:54:50.583Z,48.4
2018-06-28T10:56:50.759Z,48.6
2018-06-28T10:58:50.812Z,48.6
2018-06-28T11:00:50.857Z,48.1
2018-06-28T11:02:50.012Z,47.6
2018-06-28T11:04:50.301Z,48.6
2018-06-28T11:06:50.478Z,46.3
2018-06-28T11:08:50.548Z,46.8
2018-06-28T11:10:50.616Z,46.9
2018-06-28T11:12:50.747Z,46.9
2018-06-28T11:14:50.898Z,46.7
2018-06-28T11:16:50.203Z,46.6
2018-06-28T11:18:50.305Z,47.1
2018-06-28T11:20:50.364Z,46.8
2018-06-28T11:22:50.575Z,46.2
2018-06-28T11:24:50.647Z,46.8
2018-06-28T11:26:50.848Z,47
2018-06-28T11:28:50.911Z,47
2018-06-28T11:30:49.998Z,48
2018-06-28T11:32:50.130Z,47
2018-06-28T11:34:50.375Z,47
2018-06-28T11:36:50.629Z,46
2018-06-28T11:38:50.668Z,47
2018-06-28T11:40:51.014Z,47
2018-06-28T11:42:50.090Z,44.4
2018-06-28T11:44:50.141Z,45.0
2018-06-28T11:46:50.328Z,45.7
2018-06-28T11:48:50.338Z,44.6
2018-06-28T11:50:50.466Z,44.7
2018-06-28T11:52:50.528Z,44.6
2018-06-28T11:54:50.639Z,43.9
2018-06-28T11:56:50.829Z,46
2018-06-28T11:58:50.913Z,46
2018-06-28T12:00:49.975Z,46
2018-06-28T12:02:50.112Z,45
2018-06-28T12:04:50.457Z,45
2018-06-28T12:06:50.658Z,46
2018-06-28T12:08:50.808Z,45
2018-06-28T12:10:50.867Z,45
2018-06-28T12:12:50.942Z,42.8
2018-06-28T12:14:49.980Z,43.1
2018-06-28T12:16:50.547Z,42.6
2018-06-28T12:18:50.857Z,40.7
2018-06-28T12:20:50.010Z,43
2018-06-28T12:22:50.071Z,43
2018-06-28T12:24:50.104Z,43
2018-06-28T12:26:50.303Z,43
2018-06-28T12:28:50.399Z,44
2018-06-28T12:30:50.454Z,43
2018-06-28T12:32:50.648Z,43
2018-06-28T12:34:50.878Z,43
2018-06-28T12:36:50.076Z,43
2018-06-28T12:38:50.157Z,43
2018-06-28T12:40:50.254Z,43
2018-06-28T12:42:50.320Z,42.3
2018-06-28T12:44:50.390Z,41.9
2018-06-28T12:46:50.535Z,42.0
2018-06-28T12:48:50.139Z,42.3
2018-06-28T12:50:50.199Z,43.1
2018-06-28T12:52:50.266Z,42.0
2018-06-28T12:54:50.282Z,41.9
2018-06-28T12:56:50.483Z,43.5
2018-06-28T12:58:50.550Z,42.3
2018-06-28T13:00:50.654Z,42.7
2018-06-28T13:02:50.690Z,43.4
2018-06-28T13:04:50.967Z,44.1
2018-06-28T13:06:50.167Z,43.8
2018-06-28T13:08:50.192Z,44.2
2018-06-28T13:10:50.299Z,44.3
2018-06-28T13:12:50.337Z,44.4
2018-06-28T13:14:50.421Z,44.8
2018-06-28T13:16:50.531Z,45.2
2018-06-28T13:18:51.590Z,44.9
2018-06-28T13:20:50.747Z,45.4
2018-06-28T13:22:50.912Z,45.3
2018-06-28T13:24:51.701Z,44.6
2018-06-28T13:26:50.045Z,44.8
2018-06-28T13:28:50.172Z,45.1
2018-06-28T13:30:50.232Z,46
2018-06-28T13:32:50.421Z,46
2018-06-28T13:34:50.733Z,46
2018-06-28T13:36:50.917Z,46
2018-06-28T13:38:49.953Z,45.3
2018-06-28T13:40:51.317Z,47.2
2018-06-28T13:42:50.432Z,47.5
2018-06-28T13:44:50.493Z,47.6
2018-06-28T13:46:50.688Z,49.7
2018-06-28T13:48:50.813Z,52.4
2018-06-28T13:50:50.951Z,53.1
2018-06-28T13:52:50.941Z,53.8
2018-06-28T13:54:50.031Z,53.3
2018-06-28T13:56:50.214Z,52.5
2018-06-28T13:58:50.267Z,52.5
2018-06-28T14:00:50.404Z,52.5
2018-06-28T14:02:50.428Z,52.9
2018-06-28T14:04:50.739Z,52.6
2018-06-28T14:06:50.941Z,52.4
2018-06-28T14:08:50.145Z,53.6
2018-06-28T14:10:50.262Z,54.0
2018-06-28T14:12:50.308Z,54.0
2018-06-28T14:14:50.423Z,53.2
2018-06-28T14:16:50.568Z,53.0
2018-06-28T14:18:51.141Z,54.0
2018-06-28T14:20:50.323Z,55.3
2018-06-28T14:22:50.401Z,55.7
2018-06-28T14:24:50.503Z,58.0
2018-06-28T14:26:50.680Z,58.7
2018-06-28T14:28:50.806Z,59.5
2018-06-28T14:30:50.935Z,60.0
2018-06-28T14:32:50.148Z,61.7
2018-06-28T14:34:50.496Z,62.6
2018-06-28T14:36:50.796Z,65.4
2018-06-28T14:38:50.049Z,67.4
2018-06-28T14:40:50.174Z,67.8
2018-06-28T14:42:50.228Z,69.2
2018-06-28T14:44:50.739Z,71.8
2018-06-28T14:46:50.064Z,73.0
2018-06-28T14:48:50.121Z,73.2
2018-06-28T14:50:50.374Z,74.0
2018-06-28T14:52:50.441Z,74.3
2018-06-28T14:54:50.679Z,74.7
2018-06-28T14:56:51.105Z,72.6
2018-06-28T14:58:50.251Z,76.6
2018-06-28T15:00:50.357Z,74.0
2018-06-28T15:02:50.407Z,74.5
2018-06-28T15:04:50.711Z,72.2
2018-06-28T15:06:50.855Z,73.5
2018-06-28T15:08:50.928Z,73.6
2018-06-28T15:10:50.024Z,73.0
2018-06-28T15:12:50.106Z,69.9
2018-06-28T15:14:50.177Z,73.4
2018-06-28T15:16:50.407Z,73.5
2018-06-28T15:18:50.439Z,75.3
2018-06-28T15:20:50.622Z,71.3
2018-06-28T15:22:50.849Z,73.4
2018-06-28T15:24:50.964Z,73.4
2018-06-28T15:26:50.196Z,72.1
2018-06-28T15:28:50.338Z,73.6
2018-06-28T15:30:50.556Z,73.2
2018-06-28T15:32:50.713Z,72.0
2018-06-28T15:34:50.013Z,74.9
2018-06-28T15:36:50.180Z,74.0
2018-06-28T15:38:50.306Z,72.4
2018-06-28T15:40:50.457Z,73.7
2018-06-28T15:42:50.591Z,72.8
2018-06-28T15:44:50.705Z,72.9
2018-06-28T15:46:50.907Z,72.4
2018-06-28T15:48:49.972Z,69.3
2018-06-28T15:50:50.109Z,72.9
2018-06-28T15:52:50.178Z,71.4
2018-06-28T15:54:50.353Z,72.1
2018-06-28T15:56:50.602Z,72.5
2018-06-28T15:58:50.711Z,71.7
2018-06-28T16:00:50.803Z,71.2
2018-06-28T16:02:50.336Z,71.2
2018-06-28T16:04:50.684Z,71.1
2018-06-28T16:06:50.912Z,71.1
2018-06-28T16:08:50.011Z,72.2
2018-06-28T16:10:50.114Z,72.9
2018-06-28T16:12:50.497Z,71.8
2018-06-28T16:14:50.606Z,71.2
2018-06-28T16:16:50.945Z,69.8
2018-06-28T16:18:50.035Z,69.9
2018-06-28T16:20:50.214Z,70.4
2018-06-28T16:22:50.404Z,68.8
2018-06-28T16:24:50.574Z,71.7
2018-06-28T16:26:50.861Z,71.6
2018-06-28T16:28:50.976Z,69.9
2018-06-28T16:30:50.079Z,72.2
2018-06-28T16:32:50.165Z,70.8
2018-06-28T16:34:50.512Z,71.7
2018-06-28T16:36:50.806Z,69.8
2018-06-28T16:38:50.926Z,72.1
2018-06-28T16:40:50.051Z,72.4
2018-06-28T16:42:50.156Z,72.4
2018-06-28T16:44:50.244Z,72.6
2018-06-28T16:46:50.505Z,71.4
2018-06-28T16:48:50.648Z,71.5
2018-06-28T16:50:50.724Z,71.1
2018-06-28T16:52:50.951Z,70.9
2018-06-28T16:54:50.036Z,72.4
2018-06-28T16:56:50.258Z,72.7
2018-06-28T16:58:50.367Z,71.4
2018-06-28T17:00:50.523Z,72.9
2018-06-28T17:02:50.719Z,72.9
2018-06-28T17:04:49.962Z,73.2
2018-06-28T17:06:50.261Z,74.6
2018-06-28T17:08:50.351Z,73.2
2018-06-28T17:10:50.449Z,73.9
2018-06-28T17:12:50.618Z,74.8
2018-06-28T17:14:50.855Z,75.3
2018-06-28T17:16:50.096Z,75.4
2018-06-28T17:18:50.141Z,75.1
2018-06-28T17:20:50.415Z,74.0
2018-06-28T17:22:50.533Z,74.6
2018-06-28T17:24:50.619Z,75.1
2018-06-28T17:26:50.887Z,75.2
2018-06-28T17:28:49.987Z,73.9
2018-06-28T17:30:50.071Z,74.3
2018-06-28T17:32:50.433Z,74.1
2018-06-28T17:34:50.764Z,75.5
2018-06-28T17:36:50.086Z,74.9
2018-06-28T17:38:50.232Z,74.7
2018-06-28T17:40:50.349Z,74.0
2018-06-28T17:42:50.882Z,76.1
2018-06-28T17:44:50.000Z,75.6
2018-06-28T17:46:50.191Z,76.6
2018-06-28T17:48:50.332Z,75.2
2018-06-28T17:50:50.475Z,74.9
2018-06-28T17:52:50.817Z,75.8
2018-06-28T17:54:50.978Z,75.8
2018-06-28T17:56:50.267Z,75.7
2018-06-28T17:58:50.401Z,76.5
2018-06-28T18:00:50.563Z,76.0
2018-06-28T18:02:50.765Z,77.0
2018-06-28T18:04:50.546Z,76.1
2018-06-28T18:06:50.111Z,75.2
2018-06-28T18:08:50.626Z,76.7
2018-06-28T18:10:50.734Z,76.1
2018-06-28T18:12:51.425Z,76.1
2018-06-28T18:14:50.630Z,75.8
2018-06-28T18:16:50.902Z,76.5
2018-06-28T18:18:49.996Z,76.1
2018-06-28T18:20:50.683Z,76.8
2018-06-28T18:22:50.861Z,77.1
2018-06-28T18:24:50.930Z,76.4
2018-06-28T18:26:50.181Z,74.8
2018-06-28T18:28:50.333Z,74.8
2018-06-28T18:30:50.444Z,76.2
2018-06-28T18:32:50.530Z,76.5
2018-06-28T18:34:50.881Z,76.2
2018-06-28T18:36:50.121Z,75.9
2018-06-28T18:38:50.243Z,75.5
2018-06-28T18:40:50.327Z,75.4
2018-06-28T18:42:50.468Z,75.9
2018-06-28T18:44:50.570Z,75.5
2018-06-28T18:46:50.805Z,74.7
2018-06-28T18:48:50.856Z,74.9
2018-06-28T18:50:52.869Z,75.3
2018-06-28T18:52:50.034Z,76.0
2018-06-28T18:54:50.094Z,74.6
2018-06-28T18:56:50.336Z,75.3
2018-06-28T18:58:50.437Z,74.2
2018-06-28T19:00:50.508Z,74.4
2018-06-28T19:02:50.604Z,73.7
2018-06-28T19:04:49.968Z,74.0
2018-06-28T19:06:50.159Z,74.3
2018-06-28T19:08:50.405Z,74.4
2018-06-28T19:10:50.465Z,74.5
2018-06-28T19:12:50.020Z,74.5
2018-06-28T19:14:50.114Z,74.0
2018-06-28T19:16:50.375Z,75.5
2018-06-28T19:18:50.746Z,75.6
2018-06-28T19:20:50.892Z,74.9
2018-06-28T19:22:50.113Z,74.3
2018-06-28T19:24:50.295Z,74.7
2018-06-28T19:26:50.523Z,74.1
2018-06-28T19:28:50.599Z,73.4
2018-06-28T19:30:50.812Z,73.3
2018-06-28T19:32:50.155Z,74.1
2018-06-28T19:34:50.537Z,74.6
2018-06-28T19:36:50.719Z,74.5
2018-06-28T19:38:50.851Z,74.5
2018-06-28T19:40:50.926Z,75.9
2018-06-28T19:42:50.090Z,74.7
2018-06-28T19:44:49.973Z,74.1
2018-06-28T19:46:50.241Z,74.1
2018-06-28T19:48:50.618Z,73.0
2018-06-28T19:50:50.746Z,72.6
2018-06-28T19:52:50.006Z,72.6
2018-06-28T19:54:50.669Z,72.5
2018-06-28T19:56:50.923Z,73.9
2018-06-28T19:58:50.005Z,72.7
2018-06-28T20:00:50.447Z,73.4
2018-06-28T20:02:50.664Z,73.8
2018-06-28T20:04:50.950Z,73.1
2018-06-28T20:06:50.029Z,73.8
2018-06-28T20:08:50.127Z,73.2
2018-06-28T20:10:50.469Z,74.1
2018-06-28T20:12:50.555Z,73.2
2018-06-28T20:14:50.768Z,73.5
2018-06-28T20:16:50.900Z,73.7
2018-06-28T20:18:49.963Z,72.5
2018-06-28T20:20:50.184Z,72.2
2018-06-28T20:22:50.432Z,72.4
2018-06-28T20:24:50.649Z,72.5
2018-06-28T20:26:50.902Z,72.4
2018-06-28T20:28:49.974Z,72.2
2018-06-28T20:30:50.057Z,71.7
2018-06-28T20:32:50.142Z,71.8
2018-06-28T20:34:50.307Z,71.1
2018-06-28T20:36:50.541Z,70.3
2018-06-28T20:38:50.625Z,70.4
2018-06-28T20:40:50.721Z,69.2
2018-06-28T20:42:50.856Z,69.5
2018-06-28T20:44:51.207Z,70.9
2018-06-28T20:46:50.357Z,70.6
2018-06-28T20:48:50.461Z,70.0
2018-06-28T20:50:51.079Z,70.1
2018-06-28T20:52:50.222Z,71.1
2018-06-28T20:54:50.384Z,71.1
2018-06-28T20:56:50.640Z,71.9
2018-06-28T20:58:50.872Z,73.0
2018-06-28T21:00:50.933Z,72.2
2018-06-28T21:02:50.031Z,71.7
2018-06-28T21:04:50.324Z,71.7
2018-06-28T21:06:50.516Z,71.2
2018-06-28T21:08:50.736Z,72.2
2018-06-28T21:10:50.847Z,71.6
2018-06-28T21:12:49.995Z,71.9
2018-06-28T21:14:50.145Z,73.3
2018-06-28T21:16:50.325Z,70.8
2018-06-28T21:18:50.428Z,70.8
2018-06-28T21:20:50.551Z,71.0
2018-06-28T21:22:50.806Z,70.4
2018-06-28T21:24:51.033Z,69.5
2018-06-28T21:26:50.821Z,70.1
2018-06-28T21:28:50.975Z,69.0
2018-06-28T21:30:50.071Z,69.7
2018-06-28T21:32:50.230Z,70.0
2018-06-28T21:34:51.120Z,70.5
2018-06-28T21:36:50.526Z,69.9
2018-06-28T21:38:50.682Z,70.6
2018-06-28T21:40:50.894Z,70.1
2018-06-28T21:42:50.059Z,70.1
2018-06-28T21:44:50.139Z,68.7
2018-06-28T21:46:50.362Z,69.6
2018-06-28T21:48:50.415Z,70.1
2018-06-28T21:50:50.611Z,70.8
2018-06-28T21:52:50.730Z,70.7
2018-06-28T21:54:50.849Z,70.1
2018-06-28T21:56:50.123Z,70.4
2018-06-28T21:58:50.254Z,70.0
2018-06-28T22:00:50.417Z,71.0
2018-06-28T22:02:50.587Z,69.9
2018-06-28T22:04:50.069Z,70.1
2018-06-28T22:06:50.293Z,70.6
2018-06-28T22:08:50.444Z,70.5
2018-06-28T22:10:50.641Z,70.0
2018-06-28T22:12:50.881Z,70.1
2018-06-28T22:14:50.149Z,70.0
2018-06-28T22:16:50.653Z,70.0
2018-06-28T22:18:50.727Z,70.1
2018-06-28T22:20:50.910Z,69.5
2018-06-28T22:22:49.965Z,70.3
2018-06-28T22:24:50.191Z,71.1
2018-06-28T22:26:50.465Z,70.2
2018-06-28T22:28:50.584Z,70.0
2018-06-28T22:30:50.737Z,70.3
2018-06-28T22:32:50.925Z,70.5
2018-06-28T22:34:50.388Z,72.2
2018-06-28T22:36:50.674Z,71.2
2018-06-28T22:38:50.772Z,71.2
2018-06-28T22:40:50.870Z,69.8
2018-06-28T22:42:49.980Z,69.2
2018-06-28T22:44:50.169Z,69.7
2018-06-28T22:46:50.475Z,70.4
2018-06-28T22:48:50.562Z,70.3
2018-06-28T22:50:50.633Z,70.7
2018-06-28T22:52:50.752Z,71.3
2018-06-28T22:54:49.983Z,71.2
2018-06-28T22:56:50.240Z,71.2
2018-06-28T22:58:50.314Z,71.4
2018-06-28T23:00:50.450Z,71.4
2018-06-28T23:02:50.677Z,71.7
2018-06-28T23:04:50.032Z,71.7
2018-06-28T23:06:50.192Z,72.6
2018-06-28T23:08:50.300Z,72.9
2018-06-28T23:10:50.385Z,72.0
2018-06-28T23:12:50.571Z,71.7
2018-06-28T23:14:50.675Z,71.7
2018-06-28T23:16:50.898Z,72.3
2018-06-28T23:18:49.999Z,72.4
2018-06-28T23:20:50.065Z,72.6
2018-06-28T23:22:50.241Z,72.8
2018-06-28T23:24:50.332Z,72.9
2018-06-28T23:26:50.651Z,72.9
2018-06-28T23:28:50.716Z,72.9
2018-06-28T23:30:50.864Z,73.3
2018-06-28T23:32:51.200Z,72.7
2018-06-28T23:34:50.553Z,72.8
2018-06-28T23:36:50.935Z,72.8
2018-06-28T23:38:50.004Z,73.0
2018-06-28T23:40:50.092Z,73.2
2018-06-28T23:42:50.234Z,73.3
2018-06-28T23:44:50.355Z,73.2
2018-06-28T23:46:50.639Z,72.9
2018-06-28T23:48:50.734Z,73.6
2018-06-28T23:50:50.890Z,73.5
2018-06-28T23:52:50.074Z,73.4
2018-06-28T23:54:50.190Z,73.3
2018-06-28T23:56:50.349Z,73.6
2018-06-28T23:58:50.436Z,74.0
